Terminal Aerodrome Forecast
Issued by NWS

Home | Current Version | Previous Version | Text Only | Print | Product List | Glossary On
Versions: 1 2 3 4 5 6 7 8 9 10 11 12
465
FTUS42 TJSJ 241149
TAFNCM
TAF
TNCM 241149Z 2412/2512 09015G30KT 5SM +TSRA SCT010CB BKN015 OVC030
     FM241800 18015KT 5SM TSRA SCT015CB BKN030
     FM242200 12012KT P6SM VCSH SCT018 BKN040=

USA.gov is the U.S. government's official web portal to all federal, state and local government web resources and services.